sensor_id;sensor_type;location;lat;lon;timestamp;P1;durP1;ratioP1;P2;durP2;ratioP2
14876;SDS011;69691;48.172;17.070;2023-07-22T00:00:50;14.00;;;12.00;;
14876;SDS011;69691;48.172;17.070;2023-07-22T00:03:16;19.05;;;12.35;;
14876;SDS011;69691;48.172;17.070;2023-07-22T00:05:42;14.50;;;12.70;;
14876;SDS011;69691;48.172;17.070;2023-07-22T00:08:09;16.80;;;13.10;;
14876;SDS011;69691;48.172;17.070;2023-07-22T00:10:34;18.90;;;13.77;;
14876;SDS011;69691;48.172;17.070;2023-07-22T00:13:00;17.75;;;13.85;;
14876;SDS011;69691;48.172;17.070;2023-07-22T00:15:26;14.63;;;11.18;;
14876;SDS011;69691;48.172;17.070;2023-07-22T00:17:52;18.13;;;12.93;;
14876;SDS011;69691;48.172;17.070;2023-07-22T00:20:18;16.38;;;11.32;;
14876;SDS011;69691;48.172;17.070;2023-07-22T00:22:45;15.50;;;11.60;;
14876;SDS011;69691;48.172;17.070;2023-07-22T00:25:11;16.48;;;11.57;;
14876;SDS011;69691;48.172;17.070;2023-07-22T00:27:40;14.60;;;11.15;;
14876;SDS011;69691;48.172;17.070;2023-07-22T00:30:07;15.35;;;11.82;;
14876;SDS011;69691;48.172;17.070;2023-07-22T00:32:34;16.75;;;11.40;;
14876;SDS011;69691;48.172;17.070;2023-07-22T00:35:03;14.80;;;11.05;;
14876;SDS011;69691;48.172;17.070;2023-07-22T00:37:30;12.75;;;11.05;;
14876;SDS011;69691;48.172;17.070;2023-07-22T00:39:58;13.95;;;9.90;;
14876;SDS011;69691;48.172;17.070;2023-07-22T00:42:24;12.25;;;9.38;;
14876;SDS011;69691;48.172;17.070;2023-07-22T00:44:50;14.27;;;10.25;;
14876;SDS011;69691;48.172;17.070;2023-07-22T00:47:16;15.13;;;10.82;;
14876;SDS011;69691;48.172;17.070;2023-07-22T00:49:43;11.90;;;9.77;;
14876;SDS011;69691;48.172;17.070;2023-07-22T00:52:12;11.45;;;10.20;;
14876;SDS011;69691;48.172;17.070;2023-07-22T00:54:38;12.02;;;9.95;;
14876;SDS011;69691;48.172;17.070;2023-07-22T00:57:06;13.98;;;9.73;;
14876;SDS011;69691;48.172;17.070;2023-07-22T00:59:32;13.98;;;9.40;;
14876;SDS011;69691;48.172;17.070;2023-07-22T01:01:58;12.75;;;9.77;;
14876;SDS011;69691;48.172;17.070;2023-07-22T01:04:24;16.95;;;9.40;;
14876;SDS011;69691;48.172;17.070;2023-07-22T01:06:50;13.55;;;9.60;;
14876;SDS011;69691;48.172;17.070;2023-07-22T01:09:19;11.95;;;9.43;;
14876;SDS011;69691;48.172;17.070;2023-07-22T01:11:45;11.07;;;9.57;;
14876;SDS011;69691;48.172;17.070;2023-07-22T01:14:11;13.07;;;10.27;;
14876;SDS011;69691;48.172;17.070;2023-07-22T01:16:37;13.05;;;10.18;;
14876;SDS011;69691;48.172;17.070;2023-07-22T01:19:04;12.10;;;10.13;;
14876;SDS011;69691;48.172;17.070;2023-07-22T01:21:31;14.82;;;9.40;;
14876;SDS011;69691;48.172;17.070;2023-07-22T01:23:58;14.63;;;9.43;;
14876;SDS011;69691;48.172;17.070;2023-07-22T01:26:24;11.68;;;9.95;;
14876;SDS011;69691;48.172;17.070;2023-07-22T01:28:50;18.75;;;10.85;;
14876;SDS011;69691;48.172;17.070;2023-07-22T01:31:16;15.85;;;10.02;;
14876;SDS011;69691;48.172;17.070;2023-07-22T01:33:42;11.43;;;10.10;;
14876;SDS011;69691;48.172;17.070;2023-07-22T01:36:08;14.82;;;10.57;;
14876;SDS011;69691;48.172;17.070;2023-07-22T01:38:34;11.02;;;9.93;;
14876;SDS011;69691;48.172;17.070;2023-07-22T01:41:01;10.75;;;9.57;;
14876;SDS011;69691;48.172;17.070;2023-07-22T01:43:26;12.77;;;9.38;;
14876;SDS011;69691;48.172;17.070;2023-07-22T01:45:52;11.30;;;9.90;;
14876;SDS011;69691;48.172;17.070;2023-07-22T01:48:18;13.60;;;10.27;;
14876;SDS011;69691;48.172;17.070;2023-07-22T01:50:44;14.25;;;9.57;;
14876;SDS011;69691;48.172;17.070;2023-07-22T01:53:10;12.52;;;9.20;;
14876;SDS011;69691;48.172;17.070;2023-07-22T01:55:36;14.27;;;9.27;;
14876;SDS011;69691;48.172;17.070;2023-07-22T01:58:02;9.73;;;8.73;;
14876;SDS011;69691;48.172;17.070;2023-07-22T02:00:28;13.52;;;8.55;;
14876;SDS011;69691;48.172;17.070;2023-07-22T02:02:54;12.07;;;8.40;;
14876;SDS011;69691;48.172;17.070;2023-07-22T02:05:20;9.32;;;7.32;;
14876;SDS011;69691;48.172;17.070;2023-07-22T02:07:46;8.75;;;7.18;;
14876;SDS011;69691;48.172;17.070;2023-07-22T02:10:12;10.48;;;6.25;;
14876;SDS011;69691;48.172;17.070;2023-07-22T02:12:38;9.48;;;6.13;;
14876;SDS011;69691;48.172;17.070;2023-07-22T02:15:04;7.85;;;5.43;;
14876;SDS011;69691;48.172;17.070;2023-07-22T02:17:31;11.70;;;6.60;;
14876;SDS011;69691;48.172;17.070;2023-07-22T02:19:57;9.68;;;5.68;;
14876;SDS011;69691;48.172;17.070;2023-07-22T02:22:23;8.95;;;5.82;;
14876;SDS011;69691;48.172;17.070;2023-07-22T02:24:49;6.65;;;5.22;;
14876;SDS011;69691;48.172;17.070;2023-07-22T02:27:14;6.93;;;5.88;;
14876;SDS011;69691;48.172;17.070;2023-07-22T02:29:41;7.43;;;5.65;;
14876;SDS011;69691;48.172;17.070;2023-07-22T02:32:08;10.85;;;6.72;;
14876;SDS011;69691;48.172;17.070;2023-07-22T02:34:33;6.38;;;5.75;;
14876;SDS011;69691;48.172;17.070;2023-07-22T02:36:59;6.75;;;5.70;;
14876;SDS011;69691;48.172;17.070;2023-07-22T02:39:25;8.90;;;5.65;;
14876;SDS011;69691;48.172;17.070;2023-07-22T02:41:51;8.80;;;5.47;;
14876;SDS011;69691;48.172;17.070;2023-07-22T02:44:17;8.93;;;5.88;;
14876;SDS011;69691;48.172;17.070;2023-07-22T02:46:42;9.68;;;6.18;;
14876;SDS011;69691;48.172;17.070;2023-07-22T02:49:08;10.77;;;5.95;;
14876;SDS011;69691;48.172;17.070;2023-07-22T02:51:35;7.82;;;5.72;;
14876;SDS011;69691;48.172;17.070;2023-07-22T02:54:01;8.70;;;6.05;;
14876;SDS011;69691;48.172;17.070;2023-07-22T02:56:27;9.68;;;6.45;;
14876;SDS011;69691;48.172;17.070;2023-07-22T02:58:52;7.90;;;6.43;;
14876;SDS011;69691;48.172;17.070;2023-07-22T03:01:18;8.77;;;5.82;;
14876;SDS011;69691;48.172;17.070;2023-07-22T03:03:44;9.40;;;5.88;;
14876;SDS011;69691;48.172;17.070;2023-07-22T03:06:10;6.05;;;5.45;;
14876;SDS011;69691;48.172;17.070;2023-07-22T03:08:36;7.57;;;5.82;;
14876;SDS011;69691;48.172;17.070;2023-07-22T03:11:02;6.43;;;5.30;;
14876;SDS011;69691;48.172;17.070;2023-07-22T03:13:29;9.85;;;5.28;;
14876;SDS011;69691;48.172;17.070;2023-07-22T03:15:55;7.78;;;5.80;;
14876;SDS011;69691;48.172;17.070;2023-07-22T03:18:21;9.50;;;6.07;;
14876;SDS011;69691;48.172;17.070;2023-07-22T03:20:48;9.73;;;5.20;;
14876;SDS011;69691;48.172;17.070;2023-07-22T03:23:14;13.88;;;5.78;;
14876;SDS011;69691;48.172;17.070;2023-07-22T03:25:40;10.15;;;6.25;;
14876;SDS011;69691;48.172;17.070;2023-07-22T03:28:06;7.10;;;5.78;;
14876;SDS011;69691;48.172;17.070;2023-07-22T03:30:33;7.90;;;5.70;;
14876;SDS011;69691;48.172;17.070;2023-07-22T03:32:59;6.40;;;5.80;;
14876;SDS011;69691;48.172;17.070;2023-07-22T03:35:26;11.77;;;5.78;;
14876;SDS011;69691;48.172;17.070;2023-07-22T03:37:53;9.95;;;5.82;;
14876;SDS011;69691;48.172;17.070;2023-07-22T03:40:19;6.53;;;5.82;;
14876;SDS011;69691;48.172;17.070;2023-07-22T03:42:49;9.90;;;5.53;;
14876;SDS011;69691;48.172;17.070;2023-07-22T03:45:16;6.43;;;5.50;;
14876;SDS011;69691;48.172;17.070;2023-07-22T03:47:44;7.18;;;5.00;;
14876;SDS011;69691;48.172;17.070;2023-07-22T03:50:11;7.95;;;5.38;;
14876;SDS011;69691;48.172;17.070;2023-07-22T03:52:37;8.07;;;5.07;;
14876;SDS011;69691;48.172;17.070;2023-07-22T03:55:03;7.40;;;5.50;;
14876;SDS011;69691;48.172;17.070;2023-07-22T03:57:33;9.30;;;5.22;;
14876;SDS011;69691;48.172;17.070;2023-07-22T03:59:59;5.70;;;4.97;;
14876;SDS011;69691;48.172;17.070;2023-07-22T04:02:24;7.07;;;5.38;;
14876;SDS011;69691;48.172;17.070;2023-07-22T04:04:51;10.32;;;4.70;;
14876;SDS011;69691;48.172;17.070;2023-07-22T04:07:18;8.45;;;5.68;;
14876;SDS011;69691;48.172;17.070;2023-07-22T04:09:44;10.00;;;5.43;;
14876;SDS011;69691;48.172;17.070;2023-07-22T04:12:10;6.03;;;5.20;;
14876;SDS011;69691;48.172;17.070;2023-07-22T04:14:37;6.85;;;5.07;;
14876;SDS011;69691;48.172;17.070;2023-07-22T04:17:04;6.60;;;5.00;;
14876;SDS011;69691;48.172;17.070;2023-07-22T04:19:30;8.00;;;5.70;;
14876;SDS011;69691;48.172;17.070;2023-07-22T04:21:56;5.10;;;4.63;;
14876;SDS011;69691;48.172;17.070;2023-07-22T04:24:22;7.60;;;4.60;;
14876;SDS011;69691;48.172;17.070;2023-07-22T04:26:50;9.10;;;4.97;;
14876;SDS011;69691;48.172;17.070;2023-07-22T04:29:16;8.68;;;4.22;;
14876;SDS011;69691;48.172;17.070;2023-07-22T04:31:42;6.00;;;4.65;;
14876;SDS011;69691;48.172;17.070;2023-07-22T04:34:08;6.25;;;3.65;;
14876;SDS011;69691;48.172;17.070;2023-07-22T04:36:35;5.97;;;4.30;;
14876;SDS011;69691;48.172;17.070;2023-07-22T04:39:02;5.38;;;4.00;;
14876;SDS011;69691;48.172;17.070;2023-07-22T04:41:30;5.53;;;4.53;;
14876;SDS011;69691;48.172;17.070;2023-07-22T04:43:56;5.60;;;4.50;;
14876;SDS011;69691;48.172;17.070;2023-07-22T04:46:23;9.43;;;4.13;;
14876;SDS011;69691;48.172;17.070;2023-07-22T04:48:53;13.05;;;4.30;;
14876;SDS011;69691;48.172;17.070;2023-07-22T04:51:20;6.18;;;4.70;;
14876;SDS011;69691;48.172;17.070;2023-07-22T04:53:46;10.10;;;4.10;;
14876;SDS011;69691;48.172;17.070;2023-07-22T04:56:12;4.53;;;4.10;;
14876;SDS011;69691;48.172;17.070;2023-07-22T04:58:37;6.50;;;4.18;;
14876;SDS011;69691;48.172;17.070;2023-07-22T05:01:04;8.70;;;4.80;;
14876;SDS011;69691;48.172;17.070;2023-07-22T05:03:30;5.82;;;5.05;;
14876;SDS011;69691;48.172;17.070;2023-07-22T05:05:55;14.68;;;7.05;;
14876;SDS011;69691;48.172;17.070;2023-07-22T05:08:23;7.47;;;4.72;;
14876;SDS011;69691;48.172;17.070;2023-07-22T05:10:49;6.38;;;4.18;;
14876;SDS011;69691;48.172;17.070;2023-07-22T05:13:17;8.00;;;5.20;;
14876;SDS011;69691;48.172;17.070;2023-07-22T05:15:43;11.82;;;5.07;;
14876;SDS011;69691;48.172;17.070;2023-07-22T05:18:09;7.50;;;4.07;;
14876;SDS011;69691;48.172;17.070;2023-07-22T05:20:37;7.72;;;4.80;;
14876;SDS011;69691;48.172;17.070;2023-07-22T05:23:04;5.72;;;4.63;;
14876;SDS011;69691;48.172;17.070;2023-07-22T05:25:30;7.78;;;4.10;;
14876;SDS011;69691;48.172;17.070;2023-07-22T05:27:56;4.75;;;4.28;;
14876;SDS011;69691;48.172;17.070;2023-07-22T05:30:21;5.18;;;4.68;;
14876;SDS011;69691;48.172;17.070;2023-07-22T05:32:47;14.45;;;7.53;;
14876;SDS011;69691;48.172;17.070;2023-07-22T05:35:17;6.78;;;4.90;;
14876;SDS011;69691;48.172;17.070;2023-07-22T05:37:43;6.07;;;3.88;;
14876;SDS011;69691;48.172;17.070;2023-07-22T05:40:08;11.07;;;5.65;;
14876;SDS011;69691;48.172;17.070;2023-07-22T05:42:35;10.95;;;4.70;;
14876;SDS011;69691;48.172;17.070;2023-07-22T05:45:01;16.58;;;7.47;;
14876;SDS011;69691;48.172;17.070;2023-07-22T05:47:28;4.47;;;4.00;;
14876;SDS011;69691;48.172;17.070;2023-07-22T05:49:54;4.82;;;4.18;;
14876;SDS011;69691;48.172;17.070;2023-07-22T05:52:20;6.70;;;4.60;;
14876;SDS011;69691;48.172;17.070;2023-07-22T05:54:46;5.70;;;4.43;;
14876;SDS011;69691;48.172;17.070;2023-07-22T05:57:11;5.70;;;4.05;;
14876;SDS011;69691;48.172;17.070;2023-07-22T05:59:37;13.13;;;6.85;;
14876;SDS011;69691;48.172;17.070;2023-07-22T06:02:04;5.45;;;4.22;;
14876;SDS011;69691;48.172;17.070;2023-07-22T06:04:31;9.18;;;4.30;;
14876;SDS011;69691;48.172;17.070;2023-07-22T06:06:57;4.43;;;3.92;;
14876;SDS011;69691;48.172;17.070;2023-07-22T06:09:23;8.52;;;4.72;;
14876;SDS011;69691;48.172;17.070;2023-07-22T06:11:49;7.03;;;4.53;;
14876;SDS011;69691;48.172;17.070;2023-07-22T06:14:15;5.28;;;4.10;;
14876;SDS011;69691;48.172;17.070;2023-07-22T06:16:41;8.10;;;5.18;;
14876;SDS011;69691;48.172;17.070;2023-07-22T06:19:07;6.82;;;4.90;;
14876;SDS011;69691;48.172;17.070;2023-07-22T06:21:33;4.85;;;4.22;;
14876;SDS011;69691;48.172;17.070;2023-07-22T06:23:59;4.32;;;3.92;;
14876;SDS011;69691;48.172;17.070;2023-07-22T06:26:24;4.90;;;4.40;;
14876;SDS011;69691;48.172;17.070;2023-07-22T06:28:50;8.15;;;5.88;;
14876;SDS011;69691;48.172;17.070;2023-07-22T06:31:16;16.58;;;8.13;;
14876;SDS011;69691;48.172;17.070;2023-07-22T06:33:43;5.65;;;4.50;;
14876;SDS011;69691;48.172;17.070;2023-07-22T06:36:09;5.45;;;4.95;;
14876;SDS011;69691;48.172;17.070;2023-07-22T06:38:34;6.18;;;4.68;;
14876;SDS011;69691;48.172;17.070;2023-07-22T06:41:00;5.13;;;4.00;;
14876;SDS011;69691;48.172;17.070;2023-07-22T06:43:26;6.82;;;4.28;;
14876;SDS011;69691;48.172;17.070;2023-07-22T06:45:52;5.43;;;4.30;;
14876;SDS011;69691;48.172;17.070;2023-07-22T06:48:18;5.50;;;4.70;;
14876;SDS011;69691;48.172;17.070;2023-07-22T06:50:47;4.38;;;3.88;;
14876;SDS011;69691;48.172;17.070;2023-07-22T06:53:14;8.52;;;5.20;;
14876;SDS011;69691;48.172;17.070;2023-07-22T06:55:47;7.45;;;4.55;;
14876;SDS011;69691;48.172;17.070;2023-07-22T06:58:18;5.35;;;4.57;;
14876;SDS011;69691;48.172;17.070;2023-07-22T07:00:53;6.10;;;4.27;;
14876;SDS011;69691;48.172;17.070;2023-07-22T07:03:20;5.47;;;4.57;;
14876;SDS011;69691;48.172;17.070;2023-07-22T07:05:53;5.68;;;4.45;;
14876;SDS011;69691;48.172;17.070;2023-07-22T07:08:21;8.25;;;4.88;;
14876;SDS011;69691;48.172;17.070;2023-07-22T07:10:48;5.28;;;4.28;;
14876;SDS011;69691;48.172;17.070;2023-07-22T07:13:15;5.70;;;4.50;;
14876;SDS011;69691;48.172;17.070;2023-07-22T07:15:41;5.00;;;4.45;;
14876;SDS011;69691;48.172;17.070;2023-07-22T07:18:12;5.43;;;4.82;;
14876;SDS011;69691;48.172;17.070;2023-07-22T07:20:37;9.70;;;4.80;;
14876;SDS011;69691;48.172;17.070;2023-07-22T07:23:03;8.23;;;4.30;;
14876;SDS011;69691;48.172;17.070;2023-07-22T07:25:29;7.18;;;4.85;;
14876;SDS011;69691;48.172;17.070;2023-07-22T07:27:55;5.18;;;4.47;;
14876;SDS011;69691;48.172;17.070;2023-07-22T07:30:21;4.57;;;3.90;;
14876;SDS011;69691;48.172;17.070;2023-07-22T07:32:46;12.02;;;4.50;;
14876;SDS011;69691;48.172;17.070;2023-07-22T07:35:12;7.93;;;4.45;;
14876;SDS011;69691;48.172;17.070;2023-07-22T07:37:38;4.43;;;4.00;;
14876;SDS011;69691;48.172;17.070;2023-07-22T07:40:04;7.32;;;4.97;;
14876;SDS011;69691;48.172;17.070;2023-07-22T07:42:31;5.80;;;3.80;;
14876;SDS011;69691;48.172;17.070;2023-07-22T07:44:57;4.05;;;3.65;;
14876;SDS011;69691;48.172;17.070;2023-07-22T07:47:22;4.63;;;4.22;;
14876;SDS011;69691;48.172;17.070;2023-07-22T07:49:48;5.97;;;3.80;;
14876;SDS011;69691;48.172;17.070;2023-07-22T07:52:14;4.65;;;4.18;;
14876;SDS011;69691;48.172;17.070;2023-07-22T07:54:40;5.43;;;4.22;;
14876;SDS011;69691;48.172;17.070;2023-07-22T07:57:06;7.55;;;4.38;;
14876;SDS011;69691;48.172;17.070;2023-07-22T07:59:32;9.40;;;4.82;;
14876;SDS011;69691;48.172;17.070;2023-07-22T08:01:57;5.78;;;3.83;;
14876;SDS011;69691;48.172;17.070;2023-07-22T08:04:23;8.70;;;5.20;;
14876;SDS011;69691;48.172;17.070;2023-07-22T08:06:49;8.88;;;4.43;;
14876;SDS011;69691;48.172;17.070;2023-07-22T08:09:15;5.00;;;4.13;;
14876;SDS011;69691;48.172;17.070;2023-07-22T08:11:45;6.93;;;4.30;;
14876;SDS011;69691;48.172;17.070;2023-07-22T08:14:11;3.75;;;3.45;;
14876;SDS011;69691;48.172;17.070;2023-07-22T08:16:37;5.25;;;3.30;;
14876;SDS011;69691;48.172;17.070;2023-07-22T08:19:02;3.75;;;3.45;;
14876;SDS011;69691;48.172;17.070;2023-07-22T08:21:29;10.27;;;3.90;;
14876;SDS011;69691;48.172;17.070;2023-07-22T08:23:55;3.88;;;3.58;;
14876;SDS011;69691;48.172;17.070;2023-07-22T08:26:22;3.97;;;3.40;;
14876;SDS011;69691;48.172;17.070;2023-07-22T08:28:48;4.07;;;3.70;;
14876;SDS011;69691;48.172;17.070;2023-07-22T08:31:14;3.95;;;3.65;;
14876;SDS011;69691;48.172;17.070;2023-07-22T08:33:40;3.70;;;3.45;;
14876;SDS011;69691;48.172;17.070;2023-07-22T08:36:06;5.80;;;4.00;;
14876;SDS011;69691;48.172;17.070;2023-07-22T08:38:32;7.10;;;3.63;;
14876;SDS011;69691;48.172;17.070;2023-07-22T08:40:58;4.05;;;3.67;;
14876;SDS011;69691;48.172;17.070;2023-07-22T08:43:24;5.28;;;3.70;;
14876;SDS011;69691;48.172;17.070;2023-07-22T08:45:53;4.03;;;3.63;;
14876;SDS011;69691;48.172;17.070;2023-07-22T08:48:21;4.10;;;3.63;;
14876;SDS011;69691;48.172;17.070;2023-07-22T08:50:53;16.23;;;3.63;;
14876;SDS011;69691;48.172;17.070;2023-07-22T08:53:24;4.20;;;3.80;;
14876;SDS011;69691;48.172;17.070;2023-07-22T08:55:51;3.75;;;3.45;;
14876;SDS011;69691;48.172;17.070;2023-07-22T08:58:18;3.97;;;3.47;;
14876;SDS011;69691;48.172;17.070;2023-07-22T09:00:45;3.75;;;3.45;;
14876;SDS011;69691;48.172;17.070;2023-07-22T09:03:13;7.55;;;5.47;;
14876;SDS011;69691;48.172;17.070;2023-07-22T09:05:39;8.23;;;4.07;;
14876;SDS011;69691;48.172;17.070;2023-07-22T09:08:07;4.15;;;3.83;;
14876;SDS011;69691;48.172;17.070;2023-07-22T09:10:34;6.47;;;4.43;;
14876;SDS011;69691;48.172;17.070;2023-07-22T09:13:01;5.78;;;3.72;;
14876;SDS011;69691;48.172;17.070;2023-07-22T09:15:28;7.15;;;3.45;;
14876;SDS011;69691;48.172;17.070;2023-07-22T09:17:56;4.00;;;3.70;;
14876;SDS011;69691;48.172;17.070;2023-07-22T09:20:22;6.63;;;3.80;;
14876;SDS011;69691;48.172;17.070;2023-07-22T09:22:49;5.55;;;3.95;;
14876;SDS011;69691;48.172;17.070;2023-07-22T09:27:50;4.28;;;3.97;;
14876;SDS011;69691;48.172;17.070;2023-07-22T09:33:00;4.03;;;3.72;;
14876;SDS011;69691;48.172;17.070;2023-07-22T09:35:32;3.75;;;3.45;;
14876;SDS011;69691;48.172;17.070;2023-07-22T09:38:13;4.27;;;3.60;;
14876;SDS011;69691;48.172;17.070;2023-07-22T09:40:42;4.03;;;3.22;;
14876;SDS011;69691;48.172;17.070;2023-07-22T09:43:11;4.40;;;4.00;;
14876;SDS011;69691;48.172;17.070;2023-07-22T09:45:39;6.03;;;3.67;;
14876;SDS011;69691;48.172;17.070;2023-07-22T09:48:05;10.18;;;5.28;;
14876;SDS011;69691;48.172;17.070;2023-07-22T09:50:34;9.90;;;5.20;;
14876;SDS011;69691;48.172;17.070;2023-07-22T09:53:02;4.60;;;3.95;;
14876;SDS011;69691;48.172;17.070;2023-07-22T09:55:29;4.32;;;3.80;;
14876;SDS011;69691;48.172;17.070;2023-07-22T10:00:29;4.40;;;4.00;;
14876;SDS011;69691;48.172;17.070;2023-07-22T10:03:00;5.30;;;3.60;;
14876;SDS011;69691;48.172;17.070;2023-07-22T10:05:33;3.88;;;3.47;;
14876;SDS011;69691;48.172;17.070;2023-07-22T10:08:00;5.35;;;3.85;;
14876;SDS011;69691;48.172;17.070;2023-07-22T10:10:32;7.68;;;4.07;;
14876;SDS011;69691;48.172;17.070;2023-07-22T10:13:00;4.07;;;3.70;;
14876;SDS011;69691;48.172;17.070;2023-07-22T10:15:28;10.93;;;5.10;;
14876;SDS011;69691;48.172;17.070;2023-07-22T10:17:56;7.00;;;4.00;;
14876;SDS011;69691;48.172;17.070;2023-07-22T10:20:23;4.95;;;3.88;;
14876;SDS011;69691;48.172;17.070;2023-07-22T10:22:49;4.45;;;3.60;;
14876;SDS011;69691;48.172;17.070;2023-07-22T10:25:17;5.28;;;4.00;;
14876;SDS011;69691;48.172;17.070;2023-07-22T10:27:44;5.78;;;3.95;;
14876;SDS011;69691;48.172;17.070;2023-07-22T10:30:14;7.30;;;4.47;;
14876;SDS011;69691;48.172;17.070;2023-07-22T10:32:45;9.82;;;5.22;;
14876;SDS011;69691;48.172;17.070;2023-07-22T10:43:12;4.18;;;3.33;;
14876;SDS011;69691;48.172;17.070;2023-07-22T10:45:51;4.32;;;3.70;;
14876;SDS011;69691;48.172;17.070;2023-07-22T10:48:21;4.55;;;4.15;;
14876;SDS011;69691;48.172;17.070;2023-07-22T10:50:52;5.15;;;3.65;;
14876;SDS011;69691;48.172;17.070;2023-07-22T11:06:57;6.15;;;3.97;;
14876;SDS011;69691;48.172;17.070;2023-07-22T11:12:07;6.65;;;3.60;;
14876;SDS011;69691;48.172;17.070;2023-07-22T11:14:50;4.47;;;3.85;;
14876;SDS011;69691;48.172;17.070;2023-07-22T11:17:18;5.03;;;3.78;;
14876;SDS011;69691;48.172;17.070;2023-07-22T11:19:55;4.22;;;3.92;;
14876;SDS011;69691;48.172;17.070;2023-07-22T11:22:22;4.50;;;4.03;;
14876;SDS011;69691;48.172;17.070;2023-07-22T11:24:48;5.20;;;3.35;;
14876;SDS011;69691;48.172;17.070;2023-07-22T11:27:14;7.80;;;4.15;;
14876;SDS011;69691;48.172;17.070;2023-07-22T11:29:41;5.20;;;4.03;;
14876;SDS011;69691;48.172;17.070;2023-07-22T11:32:07;4.65;;;3.90;;
14876;SDS011;69691;48.172;17.070;2023-07-22T11:34:41;4.47;;;3.70;;
14876;SDS011;69691;48.172;17.070;2023-07-22T11:37:12;4.18;;;3.83;;
14876;SDS011;69691;48.172;17.070;2023-07-22T11:39:39;4.10;;;3.80;;
14876;SDS011;69691;48.172;17.070;2023-07-22T11:42:07;5.90;;;3.90;;
14876;SDS011;69691;48.172;17.070;2023-07-22T11:44:33;5.30;;;3.92;;
14876;SDS011;69691;48.172;17.070;2023-07-22T11:47:00;4.63;;;3.83;;
14876;SDS011;69691;48.172;17.070;2023-07-22T11:52:05;5.28;;;3.72;;
14876;SDS011;69691;48.172;17.070;2023-07-22T11:54:45;7.70;;;3.67;;
14876;SDS011;69691;48.172;17.070;2023-07-22T11:57:16;6.57;;;4.25;;
14876;SDS011;69691;48.172;17.070;2023-07-22T11:59:48;4.28;;;3.90;;
14876;SDS011;69691;48.172;17.070;2023-07-22T12:02:19;4.65;;;3.70;;
14876;SDS011;69691;48.172;17.070;2023-07-22T12:04:56;4.45;;;4.05;;
14876;SDS011;69691;48.172;17.070;2023-07-22T12:07:25;9.75;;;3.80;;
14876;SDS011;69691;48.172;17.070;2023-07-22T12:09:56;5.15;;;3.55;;
14876;SDS011;69691;48.172;17.070;2023-07-22T12:12:34;6.38;;;4.13;;
14876;SDS011;69691;48.172;17.070;2023-07-22T12:15:15;5.60;;;3.88;;
14876;SDS011;69691;48.172;17.070;2023-07-22T12:17:56;4.55;;;4.07;;
14876;SDS011;69691;48.172;17.070;2023-07-22T12:20:28;5.70;;;3.90;;
14876;SDS011;69691;48.172;17.070;2023-07-22T12:22:56;6.90;;;4.03;;
14876;SDS011;69691;48.172;17.070;2023-07-22T12:25:23;6.10;;;3.80;;
14876;SDS011;69691;48.172;17.070;2023-07-22T12:27:49;4.60;;;4.20;;
14876;SDS011;69691;48.172;17.070;2023-07-22T12:30:18;4.57;;;3.60;;
14876;SDS011;69691;48.172;17.070;2023-07-22T12:32:45;3.88;;;3.58;;
14876;SDS011;69691;48.172;17.070;2023-07-22T12:35:11;5.55;;;3.42;;
14876;SDS011;69691;48.172;17.070;2023-07-22T12:37:38;5.28;;;4.15;;
14876;SDS011;69691;48.172;17.070;2023-07-22T12:40:05;6.20;;;3.85;;
14876;SDS011;69691;48.172;17.070;2023-07-22T12:42:33;4.70;;;3.78;;
14876;SDS011;69691;48.172;17.070;2023-07-22T12:45:01;6.05;;;3.30;;
14876;SDS011;69691;48.172;17.070;2023-07-22T12:47:28;6.18;;;4.18;;
14876;SDS011;69691;48.172;17.070;2023-07-22T12:49:54;4.10;;;3.80;;
14876;SDS011;69691;48.172;17.070;2023-07-22T12:52:20;4.72;;;3.55;;
14876;SDS011;69691;48.172;17.070;2023-07-22T12:54:46;4.40;;;4.00;;
14876;SDS011;69691;48.172;17.070;2023-07-22T12:57:11;4.80;;;3.85;;
14876;SDS011;69691;48.172;17.070;2023-07-22T12:59:37;3.80;;;3.40;;
14876;SDS011;69691;48.172;17.070;2023-07-22T13:02:03;4.18;;;3.78;;
14876;SDS011;69691;48.172;17.070;2023-07-22T13:04:30;4.30;;;3.90;;
14876;SDS011;69691;48.172;17.070;2023-07-22T13:06:55;4.32;;;3.92;;
14876;SDS011;69691;48.172;17.070;2023-07-22T13:09:21;5.90;;;4.30;;
14876;SDS011;69691;48.172;17.070;2023-07-22T13:11:47;4.13;;;3.72;;
14876;SDS011;69691;48.172;17.070;2023-07-22T13:14:13;4.57;;;4.00;;
14876;SDS011;69691;48.172;17.070;2023-07-22T13:16:39;5.18;;;4.00;;
14876;SDS011;69691;48.172;17.070;2023-07-22T13:19:05;4.50;;;4.20;;
14876;SDS011;69691;48.172;17.070;2023-07-22T13:21:31;5.53;;;3.67;;
14876;SDS011;69691;48.172;17.070;2023-07-22T13:23:57;4.32;;;3.92;;
14876;SDS011;69691;48.172;17.070;2023-07-22T13:26:23;5.00;;;3.92;;
14876;SDS011;69691;48.172;17.070;2023-07-22T13:28:48;5.05;;;3.80;;
14876;SDS011;69691;48.172;17.070;2023-07-22T13:31:15;3.50;;;3.30;;
14876;SDS011;69691;48.172;17.070;2023-07-22T13:33:40;4.20;;;3.45;;
14876;SDS011;69691;48.172;17.070;2023-07-22T13:36:06;5.80;;;4.00;;
14876;SDS011;69691;48.172;17.070;2023-07-22T13:38:34;4.30;;;3.92;;
14876;SDS011;69691;48.172;17.070;2023-07-22T13:41:00;4.15;;;3.75;;
14876;SDS011;69691;48.172;17.070;2023-07-22T13:43:26;5.60;;;3.80;;
14876;SDS011;69691;48.172;17.070;2023-07-22T13:45:53;6.35;;;3.70;;
14876;SDS011;69691;48.172;17.070;2023-07-22T13:48:19;7.50;;;3.83;;
14876;SDS011;69691;48.172;17.070;2023-07-22T13:50:45;5.22;;;3.83;;
14876;SDS011;69691;48.172;17.070;2023-07-22T13:53:11;6.03;;;3.88;;
14876;SDS011;69691;48.172;17.070;2023-07-22T13:55:36;8.40;;;4.15;;
14876;SDS011;69691;48.172;17.070;2023-07-22T13:58:02;8.88;;;3.72;;
14876;SDS011;69691;48.172;17.070;2023-07-22T14:00:28;4.50;;;4.20;;
14876;SDS011;69691;48.172;17.070;2023-07-22T14:02:54;4.10;;;3.65;;
14876;SDS011;69691;48.172;17.070;2023-07-22T14:05:20;4.38;;;3.97;;
14876;SDS011;69691;48.172;17.070;2023-07-22T14:07:46;3.97;;;3.67;;
14876;SDS011;69691;48.172;17.070;2023-07-22T14:10:12;4.43;;;4.07;;
14876;SDS011;69691;48.172;17.070;2023-07-22T14:12:37;5.10;;;3.65;;
14876;SDS011;69691;48.172;17.070;2023-07-22T14:15:03;8.57;;;4.38;;
14876;SDS011;69691;48.172;17.070;2023-07-22T14:17:30;5.55;;;4.10;;
14876;SDS011;69691;48.172;17.070;2023-07-22T14:19:57;7.53;;;4.18;;
14876;SDS011;69691;48.172;17.070;2023-07-22T14:22:24;4.88;;;4.05;;
14876;SDS011;69691;48.172;17.070;2023-07-22T14:24:50;4.32;;;3.88;;
14876;SDS011;69691;48.172;17.070;2023-07-22T14:27:16;6.68;;;3.50;;
14876;SDS011;69691;48.172;17.070;2023-07-22T14:29:41;7.30;;;4.30;;
14876;SDS011;69691;48.172;17.070;2023-07-22T14:32:07;4.60;;;4.13;;
14876;SDS011;69691;48.172;17.070;2023-07-22T14:34:34;5.40;;;4.18;;
14876;SDS011;69691;48.172;17.070;2023-07-22T14:37:00;4.43;;;4.03;;
14876;SDS011;69691;48.172;17.070;2023-07-22T14:39:26;3.80;;;3.50;;
14876;SDS011;69691;48.172;17.070;2023-07-22T14:41:52;7.28;;;4.00;;
14876;SDS011;69691;48.172;17.070;2023-07-22T14:44:18;6.00;;;3.90;;
14876;SDS011;69691;48.172;17.070;2023-07-22T14:46:45;4.82;;;4.10;;
14876;SDS011;69691;48.172;17.070;2023-07-22T14:49:11;6.90;;;3.58;;
14876;SDS011;69691;48.172;17.070;2023-07-22T14:51:36;5.22;;;3.50;;
14876;SDS011;69691;48.172;17.070;2023-07-22T14:54:03;4.20;;;3.90;;
14876;SDS011;69691;48.172;17.070;2023-07-22T14:56:29;4.03;;;3.72;;
14876;SDS011;69691;48.172;17.070;2023-07-22T14:58:55;4.32;;;3.92;;
14876;SDS011;69691;48.172;17.070;2023-07-22T15:01:21;7.47;;;3.92;;
14876;SDS011;69691;48.172;17.070;2023-07-22T15:03:47;6.80;;;4.43;;